createdAt,value
2018-07-15T00:01:39.879Z,96.30
2018-07-15T00:04:08.332Z,96.20
2018-07-15T00:06:36.625Z,96.10
2018-07-15T00:09:06.039Z,95.90
2018-07-15T00:11:34.410Z,96.30
2018-07-15T00:14:02.796Z,96.30
2018-07-15T00:16:31.115Z,96.20
2018-07-15T00:21:27.719Z,96.20
2018-07-15T00:26:35.239Z,96.30
2018-07-15T00:29:03.653Z,96.50
2018-07-15T00:31:31.951Z,96.90
2018-07-15T00:34:00.234Z,97.00
2018-07-15T00:36:28.559Z,97.00
2018-07-15T00:38:56.862Z,96.90
2018-07-15T00:41:25.160Z,96.90
2018-07-15T00:43:53.476Z,97.00
2018-07-15T00:46:21.822Z,97.00
2018-07-15T00:48:50.202Z,97.10
2018-07-15T00:51:18.561Z,97.10
2018-07-15T00:53:46.886Z,97.20
2018-07-15T00:56:15.181Z,97.40
2018-07-15T01:01:38.325Z,97.70
2018-07-15T01:04:06.964Z,97.80
2018-07-15T01:06:35.279Z,97.60
2018-07-15T01:09:03.843Z,97.60
2018-07-15T01:11:32.190Z,97.80
2018-07-15T01:14:00.505Z,98.00
2018-07-15T01:16:28.784Z,98.10
2018-07-15T01:18:57.182Z,98.40
2018-07-15T01:21:25.483Z,98.60
2018-07-15T01:23:53.767Z,98.70
2018-07-15T01:26:22.055Z,98.90
2018-07-15T01:28:50.476Z,99.30
2018-07-15T01:31:18.869Z,99.70
2018-07-15T01:39:12.347Z,99.50
2018-07-15T01:41:58.082Z,99.50
2018-07-15T01:44:26.434Z,99.40
2018-07-15T01:46:54.814Z,99.30
2018-07-15T01:49:23.174Z,99.40
2018-07-15T01:51:51.511Z,99.60
2018-07-15T01:54:19.768Z,99.50
2018-07-15T01:56:48.075Z,99.20
2018-07-15T01:59:16.386Z,99.40
2018-07-15T02:01:44.641Z,99.40
2018-07-15T02:04:12.955Z,99.60
2018-07-15T02:06:41.225Z,99.50
2018-07-15T02:09:09.699Z,99.90
2018-07-15T02:11:37.987Z,99.70
2018-07-15T02:14:06.630Z,99.50
2018-07-15T02:16:35.064Z,99.50
2018-07-15T02:19:03.401Z,99.50
2018-07-15T02:21:31.731Z,99.50
2018-07-15T02:24:00.214Z,99.50
2018-07-15T02:26:28.519Z,99.60
2018-07-15T02:28:56.871Z,99.80
2018-07-15T02:31:25.207Z,99.90
2018-07-15T02:36:21.679Z,99.90
2018-07-15T02:38:50.259Z,99.90
2018-07-15T02:41:18.561Z,99.90
2018-07-15T02:43:46.852Z,99.90
2018-07-15T02:51:57.879Z,99.90
2018-07-15T02:54:26.206Z,99.90
2018-07-15T02:56:54.476Z,99.90
2018-07-15T02:59:22.747Z,99.90
2018-07-15T03:01:51.082Z,99.90
2018-07-15T03:04:19.371Z,99.90
2018-07-15T03:06:47.794Z,99.90
2018-07-15T03:09:16.470Z,99.90
2018-07-15T03:11:44.853Z,99.90
2018-07-15T03:14:13.238Z,99.90
2018-07-15T03:16:41.564Z,99.90
2018-07-15T03:19:09.898Z,99.90
2018-07-15T03:21:38.230Z,99.90
2018-07-15T03:24:06.540Z,99.90
2018-07-15T03:26:35.332Z,99.90
2018-07-15T03:29:03.681Z,99.90
2018-07-15T03:31:32.023Z,99.90
2018-07-15T03:34:00.364Z,99.90
2018-07-15T03:36:29.778Z,99.90
2018-07-15T03:38:58.177Z,99.90
2018-07-15T03:41:26.531Z,99.90
2018-07-15T03:43:54.799Z,99.90
2018-07-15T03:46:23.077Z,99.90
2018-07-15T03:48:51.371Z,99.90
2018-07-15T03:51:19.668Z,99.90
2018-07-15T03:53:47.990Z,99.90
2018-07-15T03:56:16.261Z,99.90
2018-07-15T03:58:44.629Z,99.90
2018-07-15T04:01:13.049Z,99.90
2018-07-15T04:03:41.385Z,99.90
2018-07-15T04:06:09.691Z,99.90
2018-07-15T04:08:38.271Z,99.90
2018-07-15T04:11:06.779Z,99.90
2018-07-15T04:13:35.087Z,99.90
2018-07-15T04:16:03.420Z,99.90
2018-07-15T04:18:31.717Z,99.90
2018-07-15T04:23:28.267Z,99.90
2018-07-15T04:25:56.560Z,99.90
2018-07-15T04:28:24.840Z,99.90
2018-07-15T04:30:53.207Z,99.90
2018-07-15T04:33:21.519Z,99.90
2018-07-15T04:35:49.760Z,99.90
2018-07-15T04:38:18.061Z,99.90
2018-07-15T04:40:46.302Z,99.90
2018-07-15T04:43:14.627Z,99.90
2018-07-15T04:45:42.924Z,99.90
2018-07-15T04:48:11.331Z,99.90
2018-07-15T04:50:39.633Z,99.90
2018-07-15T04:53:07.966Z,99.90
2018-07-15T04:55:36.390Z,99.90
2018-07-15T04:58:04.772Z,99.90
2018-07-15T05:00:33.089Z,99.90
2018-07-15T05:03:01.376Z,99.90
2018-07-15T05:05:29.797Z,99.90
2018-07-15T05:07:58.084Z,99.90
2018-07-15T05:10:26.406Z,99.90
2018-07-15T05:12:54.749Z,99.90
2018-07-15T05:15:23.205Z,99.90
2018-07-15T05:17:51.474Z,99.90
2018-07-15T05:20:19.779Z,99.90
2018-07-15T05:22:48.090Z,99.90
2018-07-15T05:25:16.450Z,99.90
2018-07-15T05:27:44.881Z,99.90
2018-07-15T05:30:13.243Z,99.90
2018-07-15T05:32:41.497Z,99.90
2018-07-15T05:35:09.838Z,99.90
2018-07-15T05:37:38.142Z,99.90
2018-07-15T05:40:06.458Z,99.90
2018-07-15T05:42:34.773Z,99.90
2018-07-15T05:45:04.202Z,99.90
2018-07-15T05:47:32.574Z,99.90
2018-07-15T05:50:00.955Z,99.90
2018-07-15T05:52:29.346Z,99.90
2018-07-15T05:54:57.591Z,99.90
2018-07-15T05:57:25.904Z,99.90
2018-07-15T06:02:22.211Z,99.90
2018-07-15T06:04:50.513Z,99.90
2018-07-15T06:07:18.815Z,99.90
2018-07-15T06:09:47.354Z,99.90
2018-07-15T06:12:15.630Z,99.90
2018-07-15T06:14:43.897Z,99.90
2018-07-15T06:17:12.408Z,99.90
2018-07-15T06:19:40.568Z,99.90
2018-07-15T06:22:08.858Z,99.70
2018-07-15T06:24:37.162Z,98.90
2018-07-15T06:29:33.739Z,99.00
2018-07-15T06:32:02.168Z,98.90
2018-07-15T06:34:30.451Z,99.00
2018-07-15T06:39:26.786Z,98.90
2018-07-15T06:41:55.069Z,98.90
2018-07-15T06:44:23.387Z,98.70
2018-07-15T06:46:51.718Z,98.60
2018-07-15T06:49:20.107Z,98.70
2018-07-15T06:51:48.376Z,98.50
2018-07-15T06:54:16.887Z,98.50
2018-07-15T06:56:45.215Z,98.70
2018-07-15T06:59:13.504Z,98.60
2018-07-15T07:01:41.842Z,98.70
2018-07-15T07:04:10.352Z,98.30
2018-07-15T07:06:38.643Z,98.60
2018-07-15T07:09:07.201Z,98.30
2018-07-15T07:11:36.421Z,98.20
2018-07-15T07:14:04.997Z,98.50
2018-07-15T07:16:33.282Z,98.00
2018-07-15T07:19:01.632Z,98.10
2018-07-15T07:21:30.017Z,97.90
2018-07-15T07:23:58.331Z,98.00
2018-07-15T07:26:26.669Z,97.90
2018-07-15T07:28:55.087Z,98.00
2018-07-15T07:31:23.341Z,98.00
2018-07-15T07:33:51.800Z,97.90
2018-07-15T07:36:20.059Z,97.80
2018-07-15T07:38:48.323Z,97.70
2018-07-15T07:41:16.653Z,97.80
2018-07-15T07:43:44.922Z,97.60
2018-07-15T07:46:13.252Z,97.50
2018-07-15T07:48:41.640Z,97.60
2018-07-15T07:51:09.960Z,97.30
2018-07-15T07:53:38.245Z,97.30
2018-07-15T07:56:06.747Z,97.50
2018-07-15T07:58:35.308Z,97.00
2018-07-15T08:01:03.664Z,96.40
2018-07-15T08:03:31.972Z,96.30
2018-07-15T08:06:00.413Z,96.10
2018-07-15T08:08:28.772Z,96.10
2018-07-15T08:10:57.099Z,96.00
2018-07-15T08:13:25.443Z,95.70
2018-07-15T08:15:53.723Z,96.10
2018-07-15T08:18:21.970Z,95.60
2018-07-15T08:20:51.039Z,95.70
2018-07-15T08:23:19.783Z,95.30
2018-07-15T08:25:48.325Z,95.20
2018-07-15T08:28:16.904Z,95.00
2018-07-15T08:30:56.782Z,94.70
2018-07-15T08:33:25.394Z,94.10
2018-07-15T08:35:54.171Z,94.90
2018-07-15T08:38:22.859Z,94.70
2018-07-15T08:40:51.622Z,93.90
2018-07-15T08:43:20.153Z,93.80
2018-07-15T08:45:48.542Z,93.50
2018-07-15T08:48:16.989Z,93.20
2018-07-15T08:50:45.668Z,92.90
2018-07-15T08:53:14.124Z,93.50
2018-07-15T08:55:43.196Z,92.80
2018-07-15T08:58:11.775Z,92.20
2018-07-15T09:00:40.444Z,92.70
2018-07-15T09:03:09.306Z,92.00
2018-07-15T09:05:38.253Z,91.70
2018-07-15T09:08:06.988Z,91.20
2018-07-15T09:10:35.494Z,91.10
2018-07-15T09:13:04.108Z,91.20
2018-07-15T09:15:32.732Z,91.50
2018-07-15T09:18:01.590Z,91.70
2018-07-15T09:20:30.322Z,91.80
2018-07-15T09:22:59.272Z,91.70
2018-07-15T09:27:56.434Z,90.50
2018-07-15T09:30:25.162Z,90.80
2018-07-15T09:32:53.839Z,90.80
2018-07-15T09:35:23.138Z,90.30
2018-07-15T09:37:51.932Z,89.20
2018-07-15T09:40:20.823Z,88.90
2018-07-15T09:42:49.231Z,88.50
2018-07-15T09:45:18.183Z,88.30
2018-07-15T09:47:46.890Z,86.40
2018-07-15T09:50:15.422Z,83.00
2018-07-15T09:52:43.857Z,84.10
2018-07-15T09:55:12.375Z,81.60
2018-07-15T09:57:40.939Z,83.50
2018-07-15T10:00:13.990Z,85.00
2018-07-15T10:02:42.568Z,85.10
2018-07-15T10:07:39.953Z,90.10
2018-07-15T10:10:08.618Z,90.10
2018-07-15T10:12:37.386Z,90.30
2018-07-15T10:15:06.026Z,90.70
2018-07-15T10:17:35.782Z,91.10
2018-07-15T10:20:04.748Z,93.80
2018-07-15T10:22:33.702Z,95.20
2018-07-15T10:25:02.501Z,96.50
2018-07-15T10:27:31.323Z,95.90
2018-07-15T10:30:00.103Z,97.10
2018-07-15T10:32:28.719Z,97.80
2018-07-15T10:34:57.351Z,99.00
2018-07-15T10:37:26.391Z,98.80
2018-07-15T10:39:55.225Z,99.90
2018-07-15T10:42:23.834Z,99.90
2018-07-15T10:44:52.544Z,99.90
2018-07-15T10:47:21.174Z,99.90
2018-07-15T10:49:49.885Z,99.90
2018-07-15T10:52:18.696Z,99.90
2018-07-15T10:54:47.187Z,99.90
2018-07-15T10:57:16.059Z,99.90
2018-07-15T10:59:44.694Z,99.90
2018-07-15T11:02:13.414Z,99.90
2018-07-15T11:19:36.496Z,99.90
2018-07-15T11:22:05.581Z,99.90
2018-07-15T11:24:36.056Z,99.90
2018-07-15T11:27:04.753Z,99.90
2018-07-15T11:29:33.650Z,99.90
2018-07-15T11:32:02.715Z,99.90
2018-07-15T11:34:31.729Z,99.90
2018-07-15T11:37:00.482Z,99.90
2018-07-15T11:39:29.656Z,99.90
2018-07-15T11:41:58.547Z,99.90
2018-07-15T11:44:27.607Z,99.90
2018-07-15T11:46:56.250Z,99.90
2018-07-15T11:49:25.072Z,99.90
2018-07-15T11:51:53.887Z,99.90
2018-07-15T11:54:22.769Z,99.90
2018-07-15T11:56:51.957Z,99.90
2018-07-15T11:59:20.861Z,99.90
2018-07-15T12:01:49.622Z,99.90
2018-07-15T12:04:18.533Z,99.90
2018-07-15T12:06:47.429Z,99.90
2018-07-15T12:09:16.140Z,99.90
2018-07-15T12:11:45.037Z,99.90
2018-07-15T12:14:14.145Z,99.90
2018-07-15T12:16:44.355Z,99.90
2018-07-15T12:19:13.402Z,99.90
2018-07-15T12:21:42.406Z,99.90
2018-07-15T12:24:11.234Z,99.90
2018-07-15T12:26:40.155Z,99.90
2018-07-15T12:29:09.369Z,99.90
2018-07-15T12:31:38.491Z,99.90
2018-07-15T12:34:07.214Z,99.90
2018-07-15T12:36:36.317Z,99.90
2018-07-15T12:39:06.730Z,99.90
2018-07-15T12:41:35.671Z,99.90
2018-07-15T12:46:33.470Z,99.90
2018-07-15T12:49:02.477Z,99.90
2018-07-15T12:51:31.538Z,99.90
2018-07-15T12:54:00.246Z,97.50
2018-07-15T12:56:29.101Z,93.30
2018-07-15T12:58:58.198Z,92.40
2018-07-15T13:01:39.572Z,99.90
2018-07-15T13:04:08.746Z,91.80
2018-07-15T13:06:37.343Z,94.90
2018-07-15T13:09:06.916Z,94.40
2018-07-15T13:11:36.016Z,99.90
2018-07-15T13:14:05.292Z,99.90
2018-07-15T13:16:34.021Z,99.90
2018-07-15T13:19:02.974Z,99.90
2018-07-15T13:21:31.905Z,99.90
2018-07-15T13:24:00.878Z,99.90
2018-07-15T13:26:29.883Z,99.90
2018-07-15T13:28:58.665Z,99.50
2018-07-15T13:31:27.575Z,98.90
2018-07-15T13:33:56.700Z,98.10
2018-07-15T13:36:25.439Z,96.70
2018-07-15T13:38:54.226Z,97.30
2018-07-15T13:41:23.031Z,96.60
2018-07-15T13:43:51.888Z,96.50
2018-07-15T13:46:20.779Z,95.50
2018-07-15T13:48:49.697Z,95.20
2018-07-15T13:51:18.543Z,94.70
2018-07-15T13:53:47.743Z,94.10
2018-07-15T13:56:16.665Z,94.20
2018-07-15T13:58:45.431Z,93.90
2018-07-15T14:01:14.293Z,93.60
2018-07-15T14:03:43.224Z,93.20
2018-07-15T14:06:12.434Z,93.00
2018-07-15T14:08:41.140Z,92.30
2018-07-15T14:11:10.241Z,92.70
2018-07-15T14:13:40.192Z,93.20
